Latest Weather Observations for Sydney Airport

IDN60901

Issued at 6:44 pm EST Saturday 18 April 2015 (issued every 10 minutes, with the page automatically refreshed every 10 minutes)

About weather observations | Map of Sydney area stations | Latest observations for Sydney area | Other Formats
Station Details ID: 066037 Name: SYDNEY AIRPORT AMO Lat: -33.95 Lon: 151.17 Height: 6.0 m
Data from the previous 72 hours. | See also: Recent months at Sydney Airport
Date/Time
EST
Tmp

°C
App
Tmp
°C
Dew
Point
°C
Rel
Hum
%
Delta-T

°C
Wind Press
QNH
hPa
Press
MSL
hPa
Rain
since
9 am
mm
Dir
 
Spd
km/h
Gust
km/h
Spd
kts
Gust
kts
18/06:30pm 24.4 22.7 17.3 64 4.4 NNE 22 30 12 16 1013.2 1013.2 0.0
18/05:30pm 24.3 21.9 17.4 65 4.3 NNE 26 32 14 17 1013.0 1013.0 0.0
18/05:00pm 26.0 22.2 14.6 49 6.8 N 28 35 15 19 1012.8 1012.8 0.0
18/04:30pm 26.6 22.3 14.4 47 7.3 N 30 37 16 20 1012.9 1012.9 0.0
18/04:00pm 26.8 21.9 14.4 46 7.4 N 33 43 18 23 1013.1 1013.1 0.0
18/03:30pm 26.7 23.4 14.9 48 7.1 N 26 33 14 18 1013.0 1013.0 0.0
18/03:00pm 27.3 23.0 15.3 48 7.3 N 32 37 17 20 1013.5 1013.5 0.0
18/02:30pm 27.5 23.5 15.3 47 7.4 N 30 35 16 19 1013.5 1013.5 0.0
18/02:00pm 27.9 24.2 15.0 45 7.8 N 28 35 15 19 1013.6 1013.6 0.0
18/01:30pm 28.5 24.7 14.6 42 8.4 NNW 28 39 15 21 1013.7 1013.7 0.0
18/01:00pm 28.6 24.0 14.5 42 8.5 N 32 43 17 23 1014.1 1014.1 0.0
18/12:30pm 28.4 23.8 14.7 43 8.3 NNW 32 39 17 21 1014.6 1014.6 0.0
18/12:00pm 28.4 24.6 14.7 43 8.3 NNW 28 35 15 19 1015.1 1015.1 0.0
18/11:00am 27.1 22.9 14.6 46 7.5 NNW 30 37 16 20 1016.1 1016.1 0.0
18/10:30am 27.0 22.9 14.9 47 7.3 N 30 39 16 21 1016.4 1016.4 0.0
18/10:00am 26.9 23.4 15.6 50 6.9 N 28 35 15 19 1016.8 1016.8 0.0
18/09:30am 25.6 22.6 15.9 55 5.9 N 26 35 14 19 1017.1 1017.1 0.0
18/09:00am 24.9 22.6 16.6 60 5.1 N 24 32 13 17 1017.4 1017.4 1.0
18/08:00am 22.7 21.2 17.7 73 3.1 N 22 28 12 15 1017.8 1017.8 1.0
18/07:30am 22.1 21.8 18.3 79 2.4 N 17 22 9 12 1017.8 1017.8 1.0
18/07:00am 21.6 21.8 18.6 83 1.9 NNE 15 19 8 10 1017.4 1017.4 1.0
18/06:30am 21.2 21.4 18.6 85 1.6 NNE 15 19 8 10 1017.1 1017.1 1.0
18/05:30am 20.6 20.9 18.7 89 1.2 N 15 17 8 9 1017.1 1017.1 1.0
18/05:00am 20.2 20.8 18.6 90 1.0 N 13 15 7 8 1017.1 1017.1 1.0
18/04:30am 20.4 21.1 18.8 90 1.0 N 13 15 7 8 1017.0 1017.0 1.0
18/04:00am 20.4 21.6 19.0 92 0.9 N 11 13 6 7 1017.2 1017.2 1.0
18/03:30am 20.6 21.8 19.0 90 1.0 NNW 11 13 6 7 1017.3 1017.3 1.0
18/03:00am 20.6 21.8 19.0 90 1.0 NNW 11 13 6 7 1017.5 1017.5 1.0
18/02:30am 20.6 22.1 19.0 90 1.0 NNW 9 11 5 6 1017.9 1017.9 1.0
18/02:00am 20.8 22.0 19.1 90 1.1 NW 11 15 6 8 1018.4 1018.4 1.0
18/01:30am 21.0 22.1 18.9 88 1.3 NNW 11 13 6 7 1018.7 1018.7 1.0
18/01:00am 21.0 22.1 18.8 87 1.4 NW 11 13 6 7 1019.3 1019.3 1.0
18/12:45am 20.9 22.3 18.7 87 1.4 NW 9 13 5 7 1019.4 1019.4 1.0
18/12:30am 21.0 22.4 18.6 86 1.5 NNW 9 11 5 6 1019.5 1019.5 1.0
 
Date/Time
EST
Tmp

°C
App
Tmp
°C
Dew
Point
°C
Rel
Hum
%
Delta-T

°C
Wind Press
QNH
hPa
Press
MSL
hPa
Rain
since
9 am
mm
Dir
 
Spd
km/h
Gust
km/h
Spd
kts
Gust
kts
17/11:30pm 21.2 22.4 19.0 87 1.4 NW 11 11 6 6 1020.1 1020.1 1.0
17/11:00pm 21.6 23.1 18.9 84 1.7 N 9 11 5 6 1020.3 1020.3 1.0
17/10:30pm 22.0 23.9 19.0 83 1.9 N 7 11 4 6 1020.6 1020.6 1.0
17/10:00pm 22.1 23.6 18.9 82 2.0 NNE 9 11 5 6 1020.9 1020.9 1.0
17/09:30pm 21.3 22.3 18.7 85 1.6 NNE 11 13 6 7 1021.1 1021.1 1.0
17/09:00pm 21.9 23.3 18.7 82 2.0 NNE 9 15 5 8 1021.2 1021.2 1.0
17/08:30pm 21.3 22.3 18.6 84 1.7 NNE 11 15 6 8 1021.3 1021.3 1.0
17/08:00pm 21.3 21.4 18.4 83 1.8 NE 15 19 8 10 1021.3 1021.3 1.0
17/07:30pm 20.7 20.8 18.3 86 1.5 NE 15 19 8 10 1021.2 1021.2 1.0
17/07:00pm 20.6 21.3 18.0 85 1.6 ENE 11 17 6 9 1021.5 1021.5 1.0
17/06:30pm 20.6 21.3 18.0 85 1.6 ENE 11 13 6 7 1021.5 1021.5 1.0
17/06:00pm 20.7 21.5 18.1 85 1.6 E 11 17 6 9 1021.3 1021.3 1.0
17/05:30pm 20.8 21.1 17.9 83 1.8 ENE 13 17 7 9 1021.0 1021.0 1.0
17/05:00pm 21.0 20.5 17.9 82 1.9 NE 17 22 9 12 1021.0 1021.0 1.0
17/04:30pm 21.0 21.5 18.3 84 1.7 NE 13 19 7 10 1021.0 1021.0 1.0
17/04:00pm 21.0 20.9 17.9 82 1.9 ENE 15 19 8 10 1021.0 1021.0 1.0
17/03:30pm 21.0 21.1 18.3 84 1.7 ENE 15 19 8 10 1021.1 1021.1 1.0
17/03:00pm 20.8 20.9 18.4 86 1.5 ENE 15 19 8 10 1021.2 1021.2 1.0
17/02:30pm 20.9 20.8 18.8 88 1.3 E 17 20 9 11 1021.3 1021.3 1.0
17/02:00pm 20.9 21.2 18.8 88 1.3 E 15 19 8 10 1021.7 1021.7 1.0
17/01:30pm 21.0 21.4 19.1 89 1.2 E 15 19 8 10 1021.9 1021.9 1.0
17/01:00pm 20.8 21.2 19.0 89 1.1 E 15 19 8 10 1022.4 1022.4 1.0
17/12:55pm 20.8 21.2 19.0 89 1.1 E 15 19 8 10 1022.5 1022.5 1.0
17/12:30pm 20.6 20.7 19.2 92 0.9 E 17 19 9 10 1022.9 1022.9 1.0
17/12:00pm 20.9 21.2 18.7 87 1.4 ENE 15 17 8 9 1023.8 1023.8 0.2
17/11:48am 21.1 21.1 18.2 83 1.8 E 15 19 8 10 1023.8 1023.8 0.0
17/11:30am 21.1 21.1 18.0 82 1.9 ESE 15 19 8 10 1024.1 1024.1 0.0
17/11:00am 21.0 21.1 18.3 84 1.7 E 15 19 8 10 1024.4 1024.4 0.0
17/10:30am 21.1 21.3 17.7 81 2.1 ENE 13 17 7 9 1024.6 1024.6 0.0
17/10:00am 23.1 22.6 17.8 72 3.3 ENE 17 22 9 12 1024.6 1024.6 0.0
17/09:30am 21.2 20.4 18.1 82 1.9 ENE 19 24 10 13 1024.7 1024.7 0.0
17/09:00am 21.3 20.7 18.4 83 1.8 ENE 19 24 10 13 1024.5 1024.5 1.6
17/08:30am 20.9 20.7 17.6 81 2.0 ENE 15 19 8 10 1024.7 1024.7 1.6
17/08:00am 20.7 21.3 17.8 83 1.8 ENE 11 15 6 8 1024.6 1024.6 1.6
17/07:30am 20.3 20.6 18.0 87 1.4 E 13 17 7 9 1024.2 1024.2 1.6
17/07:00am 20.0 20.0 18.1 89 1.2 E 15 17 8 9 1023.9 1023.9 1.6
17/06:30am 20.0 20.4 18.2 89 1.1 E 13 17 7 9 1023.7 1023.7 1.6
17/06:00am 19.9 20.8 18.4 91 0.9 ESE 11 15 6 8 1023.7 1023.7 0.8
17/05:30am 20.0 20.1 18.4 90 1.0 SE 15 19 8 10 1023.2 1023.2 0.6
17/05:00am 20.1 20.2 18.3 89 1.1 SE 15 19 8 10 1023.3 1023.3 0.2
17/04:30am 20.2 20.3 18.3 89 1.2 SSE 15 19 8 10 1023.1 1023.1 0.2
17/04:00am 20.1 19.9 18.5 90 1.0 SE 17 20 9 11 1023.0 1023.0 0.2
17/03:30am 20.4 20.6 18.6 89 1.1 SSE 15 20 8 11 1022.8 1022.8 0.2
17/03:00am 20.5 21.1 18.7 89 1.1 SE 13 17 7 9 1023.0 1023.0 0.2
17/02:30am 20.9 21.7 18.2 84 1.7 SSE 11 13 6 7 1023.3 1023.3 0.2
17/02:00am 20.9 21.6 18.0 83 1.8 SE 11 13 6 7 1023.3 1023.3 0.2
17/01:30am 20.9 21.3 18.2 84 1.7 SSE 13 15 7 8 1023.4 1023.4 0.2
17/01:00am 21.0 21.5 18.3 84 1.7 SSE 13 15 7 8 1023.5 1023.5 0.2
17/12:30am 21.0 21.5 18.3 84 1.7 SSE 13 15 7 8 1023.6 1023.6 0.2
17/12:00am 20.9 22.3 18.7 87 1.4 S 9 13 5 7 1023.6 1023.6 0.2
 
Date/Time
EST
Tmp

°C
App
Tmp
°C
Dew
Point
°C
Rel
Hum
%
Delta-T

°C
Wind Press
QNH
hPa
Press
MSL
hPa
Rain
since
9 am
mm
Dir
 
Spd
km/h
Gust
km/h
Spd
kts
Gust
kts
16/11:30pm 20.9 22.1 18.2 84 1.7 S 9 11 5 6 1023.7 1023.7 0.2
16/11:00pm 20.7 21.9 18.3 86 1.5 S 9 11 5 6 1023.7 1023.7 0.2
16/10:30pm 20.9 21.4 18.3 85 1.6 S 13 15 7 8 1023.7 1023.7 0.2
16/10:00pm 20.9 19.9 17.6 81 2.0 SE 19 24 10 13 1023.6 1023.6 0.2
16/09:30pm 21.0 19.3 18.1 83 1.8 SE 24 30 13 16 1023.4 1023.4 0.2
16/09:00pm 21.2 19.2 18.3 83 1.8 SE 26 33 14 18 1023.1 1023.1 0.2
16/08:30pm 21.3 18.9 18.2 82 1.9 SE 28 33 15 18 1023.0 1023.0 0.2
16/08:00pm 21.1 18.4 18.4 84 1.7 SE 30 37 16 20 1022.6 1022.6 0.2
16/07:30pm 21.5 19.2 18.5 83 1.9 SSE 28 35 15 19 1022.3 1022.3 0.2
16/07:00pm 21.4 19.3 19.0 86 1.5 SSE 28 37 15 20 1022.2 1022.2 0.2
16/06:30pm 21.5 19.2 19.4 88 1.3 SSE 30 37 16 20 1021.7 1021.7 0.2
16/06:00pm 22.0 19.1 18.8 82 2.0 SSE 32 43 17 23 1021.1 1021.1 0.0
16/05:30pm 21.9 19.9 19.9 88 1.3 S 30 37 16 20 1020.8 1020.8 0.0
16/05:00pm 22.2 19.2 19.9 87 1.5 S 35 48 19 26 1020.3 1020.3 0.0
16/04:30pm 24.1 20.9 18.2 69 3.7 S 32 39 17 21 1019.7 1019.7 0.0
16/04:14pm 23.5 21.0 18.9 75 2.9 S 30 50 16 27 1019.5 1019.5 0.0
16/04:00pm 25.3 25.0 18.3 65 4.4 S 17 20 9 11 1019.2 1019.2 0.0
16/03:45pm 27.0 25.7 17.2 55 6.1 SSW 20 28 11 15 1018.9 1018.9 0.0
16/03:30pm 32.1 29.2 12.8 30 11.5 W 20 33 11 18 1018.9 1018.9 0.0
16/03:00pm 32.0 28.5 10.9 27 12.2 W 20 28 11 15 1018.9 1018.9 0.0
16/02:30pm 32.1 27.2 11.3 28 12.1 WNW 28 35 15 19 1019.0 1019.0 0.0
16/02:00pm 31.8 28.6 13.0 31 11.2 W 22 32 12 17 1019.2 1019.2 0.0
16/01:30pm 31.3 26.9 13.0 32 10.9 W 28 35 15 19 1019.4 1019.4 0.0
16/01:00pm 30.9 27.2 12.8 33 10.7 WNW 24 30 13 16 1019.6 1019.6 0.0
16/12:30pm 30.0 27.9 14.7 39 9.3 WNW 19 28 10 15 1020.0 1020.0 0.0
16/12:00pm 29.6 27.7 14.3 39 9.2 NW 17 28 9 15 1020.6 1020.6 0.0
16/11:30am 29.1 27.1 13.9 39 9.1 NW 17 26 9 14 1020.9 1020.9 0.0
16/11:00am 28.2 26.7 14.1 42 8.4 WNW 15 20 8 11 1021.2 1021.2 0.0
16/10:30am 25.6 23.7 14.3 49 6.7 WNW 17 20 9 11 1021.4 1021.4 0.0
16/10:00am 27.1 25.5 13.9 44 7.8 NW 15 19 8 10 1021.7 1021.7 0.0
16/09:30am 25.3 24.3 14.5 51 6.4 NW 13 15 7 8 1021.9 1021.9 0.0
16/09:00am 24.7 23.9 15.0 54 5.8 NNW 13 17 7 9 1022.2 1022.2 0.0
16/08:30am 23.4 22.6 15.2 60 4.9 NW 13 15 7 8 1022.2 1022.2 0.0
16/08:00am 21.9 21.5 15.1 65 4.0 NW 11 15 6 8 1022.2 1022.2 0.0
16/07:30am 20.5 19.6 14.9 70 3.3 NNW 13 15 7 8 1021.8 1021.8 0.0
16/07:00am 19.9 18.9 14.7 72 3.0 NNW 13 19 7 10 1021.7 1021.7 0.0
16/06:30am 18.9 18.7 14.8 77 2.4 NW 9 15 5 8 1021.6 1021.6 0.0
16/06:00am 17.4 16.9 14.8 85 1.5 WNW 11 13 6 7 1021.3 1021.3 0.0
16/05:30am 17.4 17.2 14.6 83 1.6 WNW 9 13 5 7 1021.1 1021.1 0.0
16/05:00am 17.4 16.4 14.6 83 1.6 W 13 17 7 9 1021.2 1021.2 0.0
16/04:30am 18.3 17.3 14.5 78 2.2 NW 13 15 7 8 1020.8 1020.8 0.0
16/04:00am 18.4 17.7 14.2 76 2.4 N 11 13 6 7 1021.0 1021.0 0.0
16/03:30am 18.8 18.4 14.1 74 2.7 N 9 11 5 6 1021.1 1021.1 0.0
16/03:00am 18.7 18.0 14.2 75 2.6 NNW 11 17 6 9 1021.0 1021.0 0.0
16/02:30am 18.8 16.4 14.3 75 2.6 NW 20 26 11 14 1021.2 1021.2 0.0
16/02:00am 19.1 17.2 14.2 73 2.8 NW 17 20 9 11 1021.5 1021.5 0.0
16/01:30am 19.0 17.1 14.3 74 2.7 NW 17 20 9 11 1021.7 1021.7 0.0
16/01:00am 19.0 16.6 14.5 75 2.6 NNW 20 26 11 14 1022.0 1022.0 0.0
16/12:30am 18.7 16.6 14.7 77 2.3 NW 19 26 10 14 1022.6 1022.6 0.0
16/12:00am 18.5 16.5 14.9 79 2.1 NW 19 26 10 14 1022.6 1022.6 0.0
 
Date/Time
EST
Tmp

°C
App
Tmp
°C
Dew
Point
°C
Rel
Hum
%
Delta-T

°C
Wind Press
QNH
hPa
Press
MSL
hPa
Rain
since
9 am
mm
Dir
 
Spd
km/h
Gust
km/h
Spd
kts
Gust
kts
15/11:30pm 18.9 18.0 14.8 77 2.4 NW 13 19 7 10 1022.9 1022.9 0.0
15/11:00pm 19.4 18.1 14.8 75 2.7 WNW 15 20 8 11 1022.9 1022.9 0.0
15/10:30pm 19.6 16.4 14.2 71 3.1 WNW 24 30 13 16 1023.4 1023.4 0.0
15/10:00pm 19.8 18.2 15.0 74 2.8 WNW 17 22 9 12 1023.4 1023.4 0.0
15/09:30pm 20.9 20.2 14.4 66 3.8 W 11 15 6 8 1023.3 1023.3 0.0
15/09:00pm 20.5 19.9 14.5 68 3.5 WNW 11 20 6 11 1023.1 1023.1 0.0
15/08:30pm 21.5 18.8 15.6 69 3.5 NNE 24 33 13 18 1021.7 1021.7 0.0
15/08:00pm 21.1 16.8 15.9 72 3.1 WNW 33 43 18 23 1023.6 1023.6 0.0
15/07:44pm 21.8 18.9 17.0 74 2.9 NW 28 46 15 25 1023.6 1023.6 0.0
15/07:33pm 21.6 20.7 16.8 74 2.9 NNW 17 44 9 24 1024.6 1024.6 0.0
15/07:30pm 22.2 22.2 17.1 73 3.1 NNW 13 19 7 10 1024.2 1024.2 0.0
15/07:00pm 21.6 21.7 17.4 77 2.6 NE 13 17 7 9 1022.8 1022.8 0.0

Latest Capital City Observations: Canberra | Sydney | Melbourne | Brisbane | Adelaide | Perth | Hobart | Darwin

Other Formats:

Comma delimited format used in spreadsheet applications
http://www.bom.gov.au/fwo/IDN60901/IDN60901.94767.axf

JavaScript Object Notation format (JSON) in row-major order
http://www.bom.gov.au/fwo/IDN60901/IDN60901.94767.json